createdAt,value
2022-10-12T00:00:35.477Z,10.52
2022-10-12T00:04:37.387Z,10.60
2022-10-12T00:08:41.157Z,10.82
2022-10-12T00:12:43.172Z,9.90
2022-10-12T00:16:45.212Z,10.27
2022-10-12T00:20:47.252Z,10.27
2022-10-12T00:24:49.298Z,9.88
2022-10-12T00:28:57.655Z,10.68
2022-10-12T00:32:59.639Z,9.52
2022-10-12T00:37:01.785Z,10.63
2022-10-12T00:41:03.767Z,9.75
2022-10-12T00:45:06.323Z,9.50
2022-10-12T00:49:27.809Z,9.05
2022-10-12T00:53:35.915Z,8.90
2022-10-12T00:57:42.011Z,8.40
2022-10-12T01:01:46.627Z,9.02
2022-10-12T01:05:49.721Z,9.20
2022-10-12T01:09:52.497Z,8.95
2022-10-12T01:13:54.596Z,8.18
2022-10-12T01:18:05.477Z,9.00
2022-10-12T01:22:11.773Z,8.63
2022-10-12T01:26:34.185Z,9.38
2022-10-12T01:30:42.006Z,8.98
2022-10-12T01:34:51.862Z,9.23
2022-10-12T01:39:03.243Z,9.32
2022-10-12T01:43:05.358Z,9.20
2022-10-12T01:47:07.367Z,8.38
2022-10-12T01:51:12.786Z,8.00
2022-10-12T01:55:44.241Z,8.38
2022-10-12T02:00:04.114Z,9.52
2022-10-12T02:04:12.807Z,9.70
2022-10-12T02:08:53.670Z,9.13
2022-10-12T02:12:58.562Z,8.82
2022-10-12T02:17:06.915Z,8.95
2022-10-12T02:21:13.067Z,9.00
2022-10-12T02:25:18.970Z,8.00
2022-10-12T02:29:26.842Z,8.05
2022-10-12T02:33:58.842Z,8.15
2022-10-12T02:38:09.399Z,8.63
2022-10-12T02:42:18.455Z,9.00
2022-10-12T02:46:24.519Z,8.52
2022-10-12T02:50:28.275Z,8.32
2022-10-12T02:54:31.093Z,8.52
2022-10-12T02:58:33.398Z,7.68
2022-10-12T03:02:35.554Z,8.32
2022-10-12T03:06:37.526Z,9.05
2022-10-12T03:10:39.503Z,8.25
2022-10-12T03:14:41.490Z,7.55
2022-10-12T03:18:44.031Z,8.43
2022-10-12T03:22:46.995Z,8.48
2022-10-12T03:26:49.201Z,8.63
2022-10-12T03:30:51.248Z,7.75
2022-10-12T03:34:53.214Z,8.35
2022-10-12T03:38:55.165Z,8.52
2022-10-12T03:42:57.190Z,7.70
2022-10-12T03:46:59.193Z,8.52
2022-10-12T03:51:01.275Z,8.07
2022-10-12T03:55:03.359Z,7.93
2022-10-12T03:59:05.641Z,8.55
2022-10-12T04:03:07.556Z,8.27
2022-10-12T04:07:09.687Z,8.65
2022-10-12T04:11:11.994Z,9.68
2022-10-12T04:15:14.702Z,8.40
2022-10-12T04:19:16.840Z,9.07
2022-10-12T04:23:18.894Z,9.52
2022-10-12T04:27:21.178Z,10.30
2022-10-12T04:31:23.154Z,10.00
2022-10-12T04:35:25.268Z,9.32
2022-10-12T04:39:27.398Z,9.68
2022-10-12T04:43:29.376Z,8.65
2022-10-12T04:47:33.326Z,8.73
2022-10-12T04:51:35.378Z,8.75
2022-10-12T04:55:37.876Z,9.05
2022-10-12T04:59:40.021Z,8.25
2022-10-12T05:03:42.318Z,8.65
2022-10-12T05:07:44.555Z,9.65
2022-10-12T05:11:46.727Z,8.68
2022-10-12T05:16:14.487Z,8.77
2022-10-12T05:20:16.817Z,8.30
2022-10-12T05:24:18.752Z,8.80
2022-10-12T05:28:20.753Z,8.98
2022-10-12T05:32:22.923Z,9.20
2022-10-12T05:36:24.939Z,9.30
2022-10-12T05:40:27.232Z,8.40
2022-10-12T05:44:29.328Z,8.38
2022-10-12T05:48:31.426Z,8.25
2022-10-12T05:52:33.446Z,8.45
2022-10-12T05:56:35.668Z,8.20
2022-10-12T06:00:38.458Z,9.75
2022-10-12T06:04:40.473Z,8.40
2022-10-12T06:08:42.976Z,8.52
2022-10-12T06:12:45.228Z,8.35
2022-10-12T06:16:51.117Z,9.00
2022-10-12T06:25:18.563Z,9.23
2022-10-12T06:29:23.433Z,8.93
2022-10-12T06:33:27.130Z,8.73
2022-10-12T06:37:49.102Z,9.03
2022-10-12T06:41:53.082Z,8.95
2022-10-12T06:45:59.876Z,8.82
2022-10-12T06:50:01.838Z,9.13
2022-10-12T06:54:03.894Z,8.95
2022-10-12T06:58:05.998Z,8.63
2022-10-12T07:02:11.268Z,7.32
2022-10-12T07:06:14.359Z,6.88
2022-10-12T07:10:16.408Z,8.10
2022-10-12T07:14:18.600Z,7.95
2022-10-12T07:18:20.898Z,7.68
2022-10-12T07:22:22.908Z,11.25
2022-10-12T07:26:24.944Z,8.98
2022-10-12T07:30:26.967Z,8.48
2022-10-12T07:34:29.487Z,7.43
2022-10-12T07:38:32.193Z,7.18
2022-10-12T07:42:34.273Z,6.72
2022-10-12T07:46:36.218Z,5.78
2022-10-12T07:50:39.947Z,5.65
2022-10-12T07:54:41.988Z,6.35
2022-10-12T07:58:52.805Z,6.10
2022-10-12T08:02:54.958Z,6.45
2022-10-12T08:06:58.176Z,6.30
2022-10-12T08:11:05.871Z,6.18
2022-10-12T08:15:08.433Z,7.15
2022-10-12T08:19:11.119Z,6.68
2022-10-12T08:23:13.066Z,5.85
2022-10-12T08:27:15.172Z,5.70
2022-10-12T08:31:17.892Z,5.47
2022-10-12T08:35:19.961Z,5.32
2022-10-12T08:39:22.093Z,5.78
2022-10-12T08:43:42.306Z,5.47
2022-10-12T08:47:51.567Z,6.15
2022-10-12T08:51:56.510Z,5.03
2022-10-12T08:55:59.203Z,5.30
2022-10-12T09:00:01.696Z,5.50
2022-10-12T09:04:17.133Z,6.97
2022-10-12T09:08:48.076Z,6.25
2022-10-12T09:13:21.106Z,6.47
2022-10-12T09:17:38.382Z,6.40
2022-10-12T09:21:42.829Z,5.85
2022-10-12T09:25:46.668Z,4.93
2022-10-12T09:29:53.037Z,4.70
2022-10-12T09:33:58.370Z,4.78
2022-10-12T09:38:01.964Z,5.40
2022-10-12T09:42:04.358Z,5.13
2022-10-12T09:46:13.445Z,5.03
2022-10-12T09:50:40.445Z,4.70
2022-10-12T09:54:52.596Z,3.92
2022-10-12T09:58:57.868Z,4.15
2022-10-12T10:03:01.194Z,3.90
2022-10-12T10:07:33.445Z,3.50
2022-10-12T10:11:36.205Z,3.90
2022-10-12T10:15:41.544Z,4.45
2022-10-12T10:19:54.156Z,3.75
2022-10-12T10:24:01.851Z,4.25
2022-10-12T10:28:31.807Z,3.45
2022-10-12T10:32:33.955Z,3.55
2022-10-12T10:36:41.031Z,3.72
2022-10-12T10:40:43.000Z,3.65
2022-10-12T10:44:59.060Z,3.50
2022-10-12T10:49:06.442Z,3.95
2022-10-12T10:53:21.580Z,5.10
2022-10-12T10:57:25.191Z,4.18
2022-10-12T11:01:36.663Z,3.63
2022-10-12T11:05:45.560Z,4.80
2022-10-12T11:09:54.821Z,3.65
2022-10-12T11:14:07.411Z,3.70
2022-10-12T11:18:25.865Z,4.10
2022-10-12T11:22:40.379Z,3.13
2022-10-12T11:26:50.057Z,3.50
2022-10-12T11:30:53.304Z,3.88
2022-10-12T11:35:01.807Z,3.30
2022-10-12T11:39:08.329Z,3.03
2022-10-12T11:43:15.766Z,3.88
2022-10-12T11:47:29.898Z,3.75
2022-10-12T11:55:39.918Z,4.45
2022-10-12T11:59:50.241Z,3.00
2022-10-12T12:03:55.173Z,3.03
2022-10-12T12:07:57.090Z,2.70
2022-10-12T12:12:17.872Z,3.13
2022-10-12T12:16:19.733Z,2.70
2022-10-12T12:21:03.652Z,3.10
2022-10-12T12:25:10.724Z,2.72
2022-10-12T12:29:29.955Z,3.10
2022-10-12T12:33:38.640Z,2.90
2022-10-12T12:37:43.795Z,3.00
2022-10-12T12:41:56.585Z,3.03
2022-10-12T12:46:02.176Z,2.67
2022-10-12T12:50:37.466Z,2.53
2022-10-12T12:55:00.480Z,2.83
2022-10-12T12:59:40.058Z,2.72
2022-10-12T13:04:02.568Z,2.95
2022-10-12T13:08:35.357Z,2.75
2022-10-12T13:13:06.657Z,2.70
2022-10-12T13:17:36.145Z,3.70
2022-10-12T13:21:45.706Z,2.97
2022-10-12T13:25:56.256Z,2.90
2022-10-12T13:30:08.931Z,2.60
2022-10-12T13:34:36.215Z,4.32
2022-10-12T13:38:39.242Z,3.78
2022-10-12T13:42:41.201Z,3.60
2022-10-12T13:47:26.376Z,3.65
2022-10-12T13:51:30.753Z,3.45
2022-10-12T13:55:32.728Z,3.22
2022-10-12T13:59:37.819Z,3.17
2022-10-12T14:03:43.368Z,3.53
2022-10-12T14:07:47.161Z,3.22
2022-10-12T14:11:51.320Z,3.80
2022-10-12T14:15:54.922Z,3.25
2022-10-12T14:20:13.780Z,3.38
2022-10-12T14:24:19.344Z,3.03
2022-10-12T14:28:35.489Z,3.40
2022-10-12T14:32:44.106Z,30.08
2022-10-12T14:36:46.094Z,39.67
2022-10-12T14:40:48.023Z,9.52
2022-10-12T14:44:50.748Z,8.50
2022-10-12T14:48:52.694Z,9.95
2022-10-12T14:53:04.705Z,6.78
2022-10-12T14:57:14.025Z,4.65
2022-10-12T15:01:16.269Z,3.80
2022-10-12T15:05:22.089Z,5.32
2022-10-12T15:09:24.030Z,3.50
2022-10-12T15:13:25.987Z,3.38
2022-10-12T15:17:28.368Z,3.90
2022-10-12T15:21:30.452Z,3.47
2022-10-12T15:25:35.503Z,3.92
2022-10-12T15:29:37.748Z,4.43
2022-10-12T15:33:43.764Z,4.72
2022-10-12T15:37:46.330Z,4.50
2022-10-12T15:41:48.371Z,3.83
2022-10-12T15:45:50.859Z,4.78
2022-10-12T15:49:52.944Z,4.38
2022-10-12T15:53:55.346Z,4.53
2022-10-12T15:57:58.516Z,4.80
2022-10-12T16:02:00.545Z,5.30
2022-10-12T16:06:02.423Z,4.93
2022-10-12T16:10:04.669Z,5.78
2022-10-12T16:14:06.853Z,4.80
2022-10-12T16:18:10.057Z,4.70
2022-10-12T16:22:12.149Z,5.25
2022-10-12T16:26:15.462Z,5.38
2022-10-12T16:30:19.025Z,5.13
2022-10-12T16:34:20.936Z,5.17
2022-10-12T16:38:22.909Z,5.38
2022-10-12T16:42:24.907Z,5.45
2022-10-12T16:46:26.842Z,5.18
2022-10-12T16:50:28.815Z,5.72
2022-10-12T16:54:30.961Z,6.03
2022-10-12T16:58:33.387Z,5.32
2022-10-12T17:02:35.631Z,5.05
2022-10-12T17:06:37.587Z,5.65
2022-10-12T17:10:44.320Z,5.90
2022-10-12T17:14:46.798Z,5.47
2022-10-12T17:18:48.859Z,5.47
2022-10-12T17:22:50.793Z,4.95
2022-10-12T17:26:53.628Z,6.05
2022-10-12T17:30:55.829Z,5.28
2022-10-12T17:34:57.835Z,5.38
2022-10-12T17:39:00.047Z,5.53
2022-10-12T17:43:02.006Z,6.20
2022-10-12T17:47:04.088Z,6.13
2022-10-12T17:51:09.794Z,6.75
2022-10-12T17:55:29.493Z,5.78
2022-10-12T17:59:33.726Z,6.15
2022-10-12T18:03:35.698Z,6.72
2022-10-12T18:07:40.726Z,6.63
2022-10-12T18:11:44.298Z,5.95
2022-10-12T18:15:46.392Z,5.65
2022-10-12T18:19:48.726Z,6.15
2022-10-12T18:23:51.399Z,7.03
2022-10-12T18:27:53.311Z,6.65
2022-10-12T18:31:55.435Z,6.38
2022-10-12T18:36:06.340Z,6.57
2022-10-12T18:40:09.177Z,6.57
2022-10-12T18:44:11.722Z,6.65
2022-10-12T18:48:13.930Z,6.80
2022-10-12T18:52:16.206Z,7.03
2022-10-12T18:56:19.425Z,6.97
2022-10-12T19:00:21.540Z,7.55
2022-10-12T19:04:23.644Z,7.40
2022-10-12T19:08:25.775Z,7.18
2022-10-12T19:12:27.714Z,7.63
2022-10-12T19:16:30.381Z,8.02
2022-10-12T19:20:35.656Z,7.72
2022-10-12T19:24:37.870Z,7.72
2022-10-12T19:28:39.904Z,7.78
2022-10-12T19:32:43.046Z,8.25
2022-10-12T19:36:45.517Z,9.40
2022-10-12T19:40:47.878Z,8.88
2022-10-12T19:44:50.680Z,9.40
2022-10-12T19:48:55.413Z,10.02
2022-10-12T19:52:57.498Z,9.45
2022-10-12T19:56:59.471Z,9.70
2022-10-12T20:01:04.369Z,9.50
2022-10-12T20:05:06.701Z,9.07
2022-10-12T20:09:09.543Z,9.43
2022-10-12T20:13:11.569Z,9.52
2022-10-12T20:17:13.676Z,8.68
2022-10-12T20:21:19.299Z,8.80
2022-10-12T20:25:21.289Z,9.20
2022-10-12T20:29:23.310Z,8.98
2022-10-12T20:33:25.247Z,8.43
2022-10-12T20:37:27.617Z,9.05
2022-10-12T20:41:29.961Z,9.27
2022-10-12T20:45:32.078Z,9.43
2022-10-12T20:49:34.061Z,8.50
2022-10-12T20:53:36.623Z,8.70
2022-10-12T20:57:38.684Z,8.13
2022-10-12T21:01:40.682Z,7.60
2022-10-12T21:05:42.916Z,8.00
2022-10-12T21:09:45.401Z,7.80
2022-10-12T21:13:47.811Z,7.57
2022-10-12T21:17:49.740Z,6.68
2022-10-12T21:21:51.974Z,6.53
2022-10-12T21:25:54.567Z,6.30
2022-10-12T21:29:56.552Z,8.15
2022-10-12T21:34:01.426Z,9.02
2022-10-12T21:38:04.153Z,8.95
2022-10-12T21:42:06.202Z,8.63
2022-10-12T21:46:11.223Z,8.55
2022-10-12T21:50:13.306Z,7.82
2022-10-12T21:54:15.379Z,8.30
2022-10-12T21:58:17.540Z,8.27
2022-10-12T22:02:20.103Z,8.82
2022-10-12T22:06:24.230Z,6.88
2022-10-12T22:10:26.270Z,7.30
2022-10-12T22:14:28.310Z,7.90
2022-10-12T22:18:38.582Z,7.57
2022-10-12T22:22:40.844Z,8.05
2022-10-12T22:26:43.147Z,7.22
2022-10-12T22:30:45.549Z,8.05
2022-10-12T22:34:47.638Z,8.70
2022-10-12T22:38:49.690Z,8.35
2022-10-12T22:42:51.841Z,9.02
2022-10-12T22:46:53.846Z,7.90
2022-10-12T22:50:56.446Z,8.63
2022-10-12T22:54:58.425Z,9.90
2022-10-12T22:59:03.205Z,9.30
2022-10-12T23:07:34.014Z,7.15
2022-10-12T23:11:35.927Z,8.20
2022-10-12T23:15:37.867Z,6.78
2022-10-12T23:19:40.281Z,7.25
2022-10-12T23:23:43.791Z,6.72
2022-10-12T23:27:46.093Z,7.53
2022-10-12T23:31:48.005Z,7.20
2022-10-12T23:35:58.011Z,8.10
2022-10-12T23:39:59.978Z,7.15
2022-10-12T23:44:01.992Z,7.15
2022-10-12T23:48:04.465Z,7.32
2022-10-12T23:52:06.849Z,7.47
2022-10-12T23:56:08.929Z,8.02
